sensor_id;sensor_type;location;lat;lon;timestamp;pressure;altitude;pressure_sealevel;temperature;humidity
60719;BME280;46567;51.660;5.824;2023-03-05T00:00:22;102180.0;;;6.3;76.5
60719;BME280;46567;51.660;5.824;2023-03-05T00:05:22;102180.0;;;6.3;77.0
60719;BME280;46567;51.660;5.824;2023-03-05T00:10:22;102160.0;;;6.3;77.0
60719;BME280;46567;51.660;5.824;2023-03-05T00:15:22;102170.0;;;6.3;77.0
60719;BME280;46567;51.660;5.824;2023-03-05T00:20:22;102170.0;;;6.3;77.5
60719;BME280;46567;51.660;5.824;2023-03-05T00:25:22;102160.0;;;6.3;77.5
60719;BME280;46567;51.660;5.824;2023-03-05T00:30:22;102160.0;;;6.3;77.5
60719;BME280;46567;51.660;5.824;2023-03-05T00:35:22;102160.0;;;6.3;77.5
60719;BME280;46567;51.660;5.824;2023-03-05T00:40:22;102150.0;;;6.3;77.5
60719;BME280;46567;51.660;5.824;2023-03-05T00:45:22;102150.0;;;6.3;77.5
60719;BME280;46567;51.660;5.824;2023-03-05T00:50:22;102140.0;;;6.3;77.5
60719;BME280;46567;51.660;5.824;2023-03-05T00:55:22;102140.0;;;6.3;77.5
60719;BME280;46567;51.660;5.824;2023-03-05T01:00:22;102130.0;;;6.3;77.5
60719;BME280;46567;51.660;5.824;2023-03-05T01:05:22;102130.0;;;6.3;78.0
60719;BME280;46567;51.660;5.824;2023-03-05T01:10:23;102110.0;;;6.3;78.0
60719;BME280;46567;51.660;5.824;2023-03-05T01:15:22;102100.0;;;6.2;78.0
60719;BME280;46567;51.660;5.824;2023-03-05T01:20:22;102110.0;;;6.2;78.0
60719;BME280;46567;51.660;5.824;2023-03-05T01:25:22;102110.0;;;6.2;78.0
60719;BME280;46567;51.660;5.824;2023-03-05T01:30:22;102100.0;;;6.2;78.0
60719;BME280;46567;51.660;5.824;2023-03-05T01:35:25;102090.0;;;6.1;78.0
60719;BME280;46567;51.660;5.824;2023-03-05T01:40:28;102100.0;;;6.1;78.0
60719;BME280;46567;51.660;5.824;2023-03-05T01:45:23;102080.0;;;6.0;78.0
60719;BME280;46567;51.660;5.824;2023-03-05T01:50:23;102080.0;;;6.0;78.5
60719;BME280;46567;51.660;5.824;2023-03-05T01:55:25;102070.0;;;6.0;78.5
60719;BME280;46567;51.660;5.824;2023-03-05T02:00:26;102060.0;;;6.0;78.5
60719;BME280;46567;51.660;5.824;2023-03-05T02:05:26;102050.0;;;6.0;78.5
60719;BME280;46567;51.660;5.824;2023-03-05T02:10:25;102040.0;;;6.0;78.5
60719;BME280;46567;51.660;5.824;2023-03-05T02:15:22;102040.0;;;6.0;79.0
60719;BME280;46567;51.660;5.824;2023-03-05T02:20:24;102040.0;;;6.0;78.5
60719;BME280;46567;51.660;5.824;2023-03-05T02:25:24;102020.0;;;6.0;78.5
60719;BME280;46567;51.660;5.824;2023-03-05T02:30:22;102020.0;;;6.0;78.5
60719;BME280;46567;51.660;5.824;2023-03-05T02:35:22;102010.0;;;5.9;79.0
60719;BME280;46567;51.660;5.824;2023-03-05T02:40:22;102000.0;;;5.9;79.0
60719;BME280;46567;51.660;5.824;2023-03-05T02:45:22;101990.0;;;5.9;79.0
60719;BME280;46567;51.660;5.824;2023-03-05T02:50:22;101990.0;;;5.9;79.0
60719;BME280;46567;51.660;5.824;2023-03-05T02:55:22;101980.0;;;5.9;79.0
60719;BME280;46567;51.660;5.824;2023-03-05T03:00:22;101980.0;;;5.9;79.0
60719;BME280;46567;51.660;5.824;2023-03-05T03:05:22;101960.0;;;5.9;79.0
60719;BME280;46567;51.660;5.824;2023-03-05T03:10:22;101970.0;;;5.9;79.0
60719;BME280;46567;51.660;5.824;2023-03-05T03:15:22;101950.0;;;5.9;79.0
60719;BME280;46567;51.660;5.824;2023-03-05T03:20:22;101950.0;;;5.8;79.0
60719;BME280;46567;51.660;5.824;2023-03-05T03:25:22;101940.0;;;5.8;79.0
60719;BME280;46567;51.660;5.824;2023-03-05T03:30:22;101930.0;;;5.8;79.0
60719;BME280;46567;51.660;5.824;2023-03-05T03:35:22;101930.0;;;5.8;79.5
60719;BME280;46567;51.660;5.824;2023-03-05T03:40:22;101930.0;;;5.8;79.5
60719;BME280;46567;51.660;5.824;2023-03-05T03:45:22;101920.0;;;5.8;79.5
60719;BME280;46567;51.660;5.824;2023-03-05T03:50:22;101920.0;;;5.8;79.5
60719;BME280;46567;51.660;5.824;2023-03-05T03:55:22;101920.0;;;5.8;79.5
60719;BME280;46567;51.660;5.824;2023-03-05T04:00:22;101920.0;;;5.7;80.0
60719;BME280;46567;51.660;5.824;2023-03-05T04:05:22;101910.0;;;5.7;80.0
60719;BME280;46567;51.660;5.824;2023-03-05T04:10:22;101900.0;;;5.6;80.0
60719;BME280;46567;51.660;5.824;2023-03-05T04:15:22;101890.0;;;5.6;80.5
60719;BME280;46567;51.660;5.824;2023-03-05T04:20:22;101890.0;;;5.6;80.5
60719;BME280;46567;51.660;5.824;2023-03-05T04:25:22;101880.0;;;5.6;80.5
60719;BME280;46567;51.660;5.824;2023-03-05T04:30:22;101870.0;;;5.6;80.5
60719;BME280;46567;51.660;5.824;2023-03-05T04:35:22;101870.0;;;5.6;80.5
60719;BME280;46567;51.660;5.824;2023-03-05T04:40:22;101870.0;;;5.6;80.5
60719;BME280;46567;51.660;5.824;2023-03-05T04:45:22;101870.0;;;5.6;80.5
60719;BME280;46567;51.660;5.824;2023-03-05T04:50:23;101870.0;;;5.7;80.5
60719;BME280;46567;51.660;5.824;2023-03-05T04:55:22;101870.0;;;5.6;80.5
60719;BME280;46567;51.660;5.824;2023-03-05T05:00:22;101860.0;;;5.6;80.5
60719;BME280;46567;51.660;5.824;2023-03-05T05:05:24;101860.0;;;5.6;80.5
60719;BME280;46567;51.660;5.824;2023-03-05T05:10:22;101850.0;;;5.6;80.5
60719;BME280;46567;51.660;5.824;2023-03-05T05:15:22;101840.0;;;5.6;80.5
60719;BME280;46567;51.660;5.824;2023-03-05T05:20:22;101840.0;;;5.6;80.5
60719;BME280;46567;51.660;5.824;2023-03-05T05:25:22;101820.0;;;5.6;81.0
60719;BME280;46567;51.660;5.824;2023-03-05T05:30:22;101830.0;;;5.6;81.0
60719;BME280;46567;51.660;5.824;2023-03-05T05:35:22;101830.0;;;5.6;80.5
60719;BME280;46567;51.660;5.824;2023-03-05T05:40:22;101830.0;;;5.6;81.0
60719;BME280;46567;51.660;5.824;2023-03-05T05:45:22;101820.0;;;5.6;81.0
60719;BME280;46567;51.660;5.824;2023-03-05T05:50:22;101820.0;;;5.6;81.0
60719;BME280;46567;51.660;5.824;2023-03-05T05:55:22;101810.0;;;5.6;81.0
60719;BME280;46567;51.660;5.824;2023-03-05T06:00:22;101810.0;;;5.5;81.0
60719;BME280;46567;51.660;5.824;2023-03-05T06:05:22;101810.0;;;5.6;81.0
60719;BME280;46567;51.660;5.824;2023-03-05T06:10:22;101800.0;;;5.6;81.0
60719;BME280;46567;51.660;5.824;2023-03-05T06:15:22;101790.0;;;5.5;81.0
60719;BME280;46567;51.660;5.824;2023-03-05T06:20:22;101800.0;;;5.5;81.0
60719;BME280;46567;51.660;5.824;2023-03-05T06:25:22;101800.0;;;5.5;81.0
60719;BME280;46567;51.660;5.824;2023-03-05T06:30:22;101800.0;;;5.5;81.0
60719;BME280;46567;51.660;5.824;2023-03-05T06:35:22;101800.0;;;5.5;81.0
60719;BME280;46567;51.660;5.824;2023-03-05T06:40:22;101810.0;;;5.5;81.5
60719;BME280;46567;51.660;5.824;2023-03-05T06:45:22;101800.0;;;5.5;81.5
60719;BME280;46567;51.660;5.824;2023-03-05T06:50:22;101790.0;;;5.6;81.5
60719;BME280;46567;51.660;5.824;2023-03-05T06:55:22;101790.0;;;5.6;81.5
60719;BME280;46567;51.660;5.824;2023-03-05T07:00:22;101800.0;;;5.6;82.0
60719;BME280;46567;51.660;5.824;2023-03-05T07:05:22;101800.0;;;5.6;82.0
60719;BME280;46567;51.660;5.824;2023-03-05T07:10:23;101800.0;;;5.7;82.0
60719;BME280;46567;51.660;5.824;2023-03-05T07:15:22;101790.0;;;5.7;82.0
60719;BME280;46567;51.660;5.824;2023-03-05T07:20:22;101790.0;;;5.7;82.0
60719;BME280;46567;51.660;5.824;2023-03-05T07:25:22;101790.0;;;5.7;82.0
60719;BME280;46567;51.660;5.824;2023-03-05T07:30:22;101790.0;;;5.8;82.5
60719;BME280;46567;51.660;5.824;2023-03-05T07:35:22;101780.0;;;5.9;82.0
60719;BME280;46567;51.660;5.824;2023-03-05T07:40:22;101780.0;;;5.9;82.0
60719;BME280;46567;51.660;5.824;2023-03-05T07:45:22;101780.0;;;6.0;82.0
60719;BME280;46567;51.660;5.824;2023-03-05T07:50:22;101790.0;;;6.0;82.0
60719;BME280;46567;51.660;5.824;2023-03-05T07:55:22;101780.0;;;6.1;82.5
60719;BME280;46567;51.660;5.824;2023-03-05T08:00:22;101780.0;;;6.2;82.5
60719;BME280;46567;51.660;5.824;2023-03-05T08:05:22;101780.0;;;6.3;82.5
60719;BME280;46567;51.660;5.824;2023-03-05T08:10:22;101770.0;;;6.4;82.5
60719;BME280;46567;51.660;5.824;2023-03-05T08:15:22;101760.0;;;6.4;82.5
60719;BME280;46567;51.660;5.824;2023-03-05T08:20:22;101760.0;;;6.5;82.0
60719;BME280;46567;51.660;5.824;2023-03-05T08:25:22;101760.0;;;6.6;82.0
60719;BME280;46567;51.660;5.824;2023-03-05T08:30:22;101750.0;;;6.6;82.0
60719;BME280;46567;51.660;5.824;2023-03-05T08:35:22;101750.0;;;6.7;81.5
60719;BME280;46567;51.660;5.824;2023-03-05T08:40:22;101750.0;;;6.6;81.5
60719;BME280;46567;51.660;5.824;2023-03-05T08:45:22;101740.0;;;6.7;81.5
60719;BME280;46567;51.660;5.824;2023-03-05T08:50:23;101740.0;;;6.8;81.5
60719;BME280;46567;51.660;5.824;2023-03-05T08:55:22;101730.0;;;6.8;81.5
60719;BME280;46567;51.660;5.824;2023-03-05T09:00:22;101730.0;;;6.9;81.5
60719;BME280;46567;51.660;5.824;2023-03-05T09:05:22;101720.0;;;7.1;81.5
60719;BME280;46567;51.660;5.824;2023-03-05T09:10:22;101720.0;;;7.3;81.5
60719;BME280;46567;51.660;5.824;2023-03-05T09:15:22;101720.0;;;7.5;81.0
60719;BME280;46567;51.660;5.824;2023-03-05T09:20:22;101710.0;;;7.5;81.0
60719;BME280;46567;51.660;5.824;2023-03-05T09:25:22;101710.0;;;7.6;80.5
60719;BME280;46567;51.660;5.824;2023-03-05T09:30:22;101710.0;;;7.7;80.5
60719;BME280;46567;51.660;5.824;2023-03-05T09:35:22;101700.0;;;7.8;80.0
60719;BME280;46567;51.660;5.824;2023-03-05T09:40:22;101700.0;;;7.8;79.5
60719;BME280;46567;51.660;5.824;2023-03-05T09:45:43;101690.0;;;7.8;79.5
60719;BME280;46567;51.660;5.824;2023-03-05T09:50:51;101690.0;;;7.7;79.0
60719;BME280;46567;51.660;5.824;2023-03-05T09:55:28;101680.0;;;7.7;79.0
60719;BME280;46567;51.660;5.824;2023-03-05T10:00:35;101680.0;;;7.7;79.0
60719;BME280;46567;51.660;5.824;2023-03-05T10:05:27;101670.0;;;7.9;79.0
60719;BME280;46567;51.660;5.824;2023-03-05T10:10:30;101670.0;;;8.0;78.0
60719;BME280;46567;51.660;5.824;2023-03-05T10:15:32;101670.0;;;8.0;77.5
60719;BME280;46567;51.660;5.824;2023-03-05T10:20:55;101670.0;;;7.9;77.5
60719;BME280;46567;51.660;5.824;2023-03-05T10:25:55;101670.0;;;7.8;77.0
60719;BME280;46567;51.660;5.824;2023-03-05T10:31:07;101670.0;;;7.6;77.5
60719;BME280;46567;51.660;5.824;2023-03-05T10:36:35;101670.0;;;7.4;78.5
60719;BME280;46567;51.660;5.824;2023-03-05T10:40:55;101680.0;;;7.1;79.0
60719;BME280;46567;51.660;5.824;2023-03-05T10:45:25;101660.0;;;6.8;80.0
60719;BME280;46567;51.660;5.824;2023-03-05T10:50:24;101650.0;;;6.9;81.0
60719;BME280;46567;51.660;5.824;2023-03-05T10:55:22;101650.0;;;7.0;81.5
60719;BME280;46567;51.660;5.824;2023-03-05T11:00:25;101640.0;;;7.2;81.5
60719;BME280;46567;51.660;5.824;2023-03-05T11:05:40;101640.0;;;7.4;82.0
60719;BME280;46567;51.660;5.824;2023-03-05T11:10:22;101630.0;;;7.7;82.0
60719;BME280;46567;51.660;5.824;2023-03-05T11:15:29;101620.0;;;7.8;82.0
60719;BME280;46567;51.660;5.824;2023-03-05T11:20:34;101620.0;;;7.9;82.0
60719;BME280;46567;51.660;5.824;2023-03-05T11:25:22;101610.0;;;8.1;82.0
60719;BME280;46567;51.660;5.824;2023-03-05T11:30:28;101600.0;;;8.2;82.0
60719;BME280;46567;51.660;5.824;2023-03-05T11:35:32;101580.0;;;8.3;82.0
60719;BME280;46567;51.660;5.824;2023-03-05T11:40:24;101590.0;;;8.4;81.5
60719;BME280;46567;51.660;5.824;2023-03-05T11:45:24;101580.0;;;8.4;81.5
60719;BME280;46567;51.660;5.824;2023-03-05T11:50:31;101570.0;;;8.5;81.5
60719;BME280;46567;51.660;5.824;2023-03-05T11:55:39;101570.0;;;8.7;81.0
60719;BME280;46567;51.660;5.824;2023-03-05T12:00:32;101550.0;;;8.7;80.5
60719;BME280;46567;51.660;5.824;2023-03-05T12:05:23;101550.0;;;8.8;79.5
60719;BME280;46567;51.660;5.824;2023-03-05T12:10:26;101530.0;;;8.9;79.5
60719;BME280;46567;51.660;5.824;2023-03-05T12:15:45;101520.0;;;9.0;79.0
60719;BME280;46567;51.660;5.824;2023-03-05T12:20:32;101510.0;;;9.2;79.0
60719;BME280;46567;51.660;5.824;2023-03-05T12:25:33;101510.0;;;9.3;78.0
60719;BME280;46567;51.660;5.824;2023-03-05T12:30:54;101500.0;;;9.3;77.5
60719;BME280;46567;51.660;5.824;2023-03-05T12:35:24;101490.0;;;9.3;76.5
60719;BME280;46567;51.660;5.824;2023-03-05T12:40:23;101490.0;;;9.3;76.0
60719;BME280;46567;51.660;5.824;2023-03-05T12:45:34;101480.0;;;9.4;76.5
60719;BME280;46567;51.660;5.824;2023-03-05T12:50:45;101460.0;;;9.5;75.5
60719;BME280;46567;51.660;5.824;2023-03-05T12:55:33;101450.0;;;9.6;75.5
60719;BME280;46567;51.660;5.824;2023-03-05T13:00:26;101450.0;;;9.8;74.5
60719;BME280;46567;51.660;5.824;2023-03-05T13:05:30;101440.0;;;9.8;74.0
60719;BME280;46567;51.660;5.824;2023-03-05T13:10:24;101430.0;;;9.8;73.0
60719;BME280;46567;51.660;5.824;2023-03-05T13:15:24;101410.0;;;9.7;73.0
60719;BME280;46567;51.660;5.824;2023-03-05T13:20:33;101410.0;;;9.8;73.0
60719;BME280;46567;51.660;5.824;2023-03-05T13:25:22;101410.0;;;9.8;72.5
60719;BME280;46567;51.660;5.824;2023-03-05T13:30:25;101400.0;;;9.8;72.0
60719;BME280;46567;51.660;5.824;2023-03-05T13:35:22;101400.0;;;9.8;72.0
60719;BME280;46567;51.660;5.824;2023-03-05T13:40:25;101390.0;;;9.7;71.5
60719;BME280;46567;51.660;5.824;2023-03-05T13:45:29;101380.0;;;9.7;71.5
60719;BME280;46567;51.660;5.824;2023-03-05T13:50:25;101370.0;;;9.8;71.5
60719;BME280;46567;51.660;5.824;2023-03-05T13:55:22;101370.0;;;9.8;71.0
60719;BME280;46567;51.660;5.824;2023-03-05T14:00:27;101370.0;;;9.8;70.5
60719;BME280;46567;51.660;5.824;2023-03-05T14:05:22;101360.0;;;9.8;70.5
60719;BME280;46567;51.660;5.824;2023-03-05T14:10:33;101350.0;;;9.8;70.0
60719;BME280;46567;51.660;5.824;2023-03-05T14:15:24;101340.0;;;9.8;69.5
60719;BME280;46567;51.660;5.824;2023-03-05T14:20:28;101350.0;;;9.8;69.0
60719;BME280;46567;51.660;5.824;2023-03-05T14:25:31;101340.0;;;9.9;68.5
60719;BME280;46567;51.660;5.824;2023-03-05T14:30:23;101330.0;;;9.9;68.5
60719;BME280;46567;51.660;5.824;2023-03-05T14:35:24;101320.0;;;10.0;68.0
60719;BME280;46567;51.660;5.824;2023-03-05T14:40:26;101310.0;;;9.7;67.0
60719;BME280;46567;51.660;5.824;2023-03-05T14:45:25;101310.0;;;9.6;67.5
60719;BME280;46567;51.660;5.824;2023-03-05T14:50:24;101300.0;;;9.6;66.5
60719;BME280;46567;51.660;5.824;2023-03-05T14:55:24;101290.0;;;9.5;66.5
60719;BME280;46567;51.660;5.824;2023-03-05T15:00:24;101280.0;;;9.5;67.0
60719;BME280;46567;51.660;5.824;2023-03-05T15:05:23;101280.0;;;9.5;66.5
60719;BME280;46567;51.660;5.824;2023-03-05T15:10:24;101270.0;;;9.3;66.5
60719;BME280;46567;51.660;5.824;2023-03-05T15:15:22;101260.0;;;9.3;67.0
60719;BME280;46567;51.660;5.824;2023-03-05T15:20:28;101260.0;;;9.4;66.0
60719;BME280;46567;51.660;5.824;2023-03-05T15:25:24;101260.0;;;9.3;66.0
60719;BME280;46567;51.660;5.824;2023-03-05T15:30:30;101250.0;;;9.3;66.0
60719;BME280;46567;51.660;5.824;2023-03-05T15:35:23;101250.0;;;9.2;66.0
60719;BME280;46567;51.660;5.824;2023-03-05T15:40:23;101230.0;;;9.1;66.5
60719;BME280;46567;51.660;5.824;2023-03-05T15:45:23;101220.0;;;9.1;66.0
60719;BME280;46567;51.660;5.824;2023-03-05T15:50:22;101220.0;;;9.0;65.5
60719;BME280;46567;51.660;5.824;2023-03-05T15:55:22;101210.0;;;8.8;66.5
60719;BME280;46567;51.660;5.824;2023-03-05T16:00:25;101220.0;;;8.8;66.5
60719;BME280;46567;51.660;5.824;2023-03-05T16:05:22;101200.0;;;8.8;67.0
60719;BME280;46567;51.660;5.824;2023-03-05T16:10:29;101190.0;;;8.8;67.0
60719;BME280;46567;51.660;5.824;2023-03-05T16:15:23;101180.0;;;8.7;67.0
60719;BME280;46567;51.660;5.824;2023-03-05T16:20:22;101190.0;;;8.7;67.5
60719;BME280;46567;51.660;5.824;2023-03-05T16:25:22;101180.0;;;8.6;67.5
60719;BME280;46567;51.660;5.824;2023-03-05T16:30:22;101180.0;;;8.5;67.5
60719;BME280;46567;51.660;5.824;2023-03-05T16:35:22;101170.0;;;8.4;67.5
60719;BME280;46567;51.660;5.824;2023-03-05T16:40:22;101160.0;;;8.3;68.0
60719;BME280;46567;51.660;5.824;2023-03-05T16:45:22;101160.0;;;8.2;68.0
60719;BME280;46567;51.660;5.824;2023-03-05T16:50:22;101150.0;;;8.1;68.5
60719;BME280;46567;51.660;5.824;2023-03-05T16:55:22;101150.0;;;8.1;68.5
60719;BME280;46567;51.660;5.824;2023-03-05T17:00:22;101150.0;;;8.1;68.5
60719;BME280;46567;51.660;5.824;2023-03-05T17:05:22;101150.0;;;8.0;69.0
60719;BME280;46567;51.660;5.824;2023-03-05T17:10:22;101160.0;;;8.0;69.0
60719;BME280;46567;51.660;5.824;2023-03-05T17:15:23;101140.0;;;7.9;69.0
60719;BME280;46567;51.660;5.824;2023-03-05T17:20:22;101140.0;;;7.8;69.0
60719;BME280;46567;51.660;5.824;2023-03-05T17:25:22;101140.0;;;7.7;69.5
60719;BME280;46567;51.660;5.824;2023-03-05T17:30:22;101140.0;;;7.7;69.5
60719;BME280;46567;51.660;5.824;2023-03-05T17:35:22;101140.0;;;7.6;69.5
60719;BME280;46567;51.660;5.824;2023-03-05T17:40:23;101140.0;;;7.5;69.5
60719;BME280;46567;51.660;5.824;2023-03-05T17:45:22;101140.0;;;7.5;69.5
60719;BME280;46567;51.660;5.824;2023-03-05T17:50:22;101130.0;;;7.4;70.0
60719;BME280;46567;51.660;5.824;2023-03-05T17:55:22;101130.0;;;7.4;70.0
60719;BME280;46567;51.660;5.824;2023-03-05T18:00:25;101140.0;;;7.4;70.0
60719;BME280;46567;51.660;5.824;2023-03-05T18:05:23;101130.0;;;7.4;70.5
60719;BME280;46567;51.660;5.824;2023-03-05T18:10:25;101120.0;;;7.3;70.5
60719;BME280;46567;51.660;5.824;2023-03-05T18:20:26;101130.0;;;7.3;71.0
60719;BME280;46567;51.660;5.824;2023-03-05T18:25:23;101120.0;;;7.3;71.0
60719;BME280;46567;51.660;5.824;2023-03-05T18:30:22;101120.0;;;7.3;71.0
60719;BME280;46567;51.660;5.824;2023-03-05T18:35:22;101120.0;;;7.2;71.0
60719;BME280;46567;51.660;5.824;2023-03-05T18:40:27;101110.0;;;7.2;71.5
60719;BME280;46567;51.660;5.824;2023-03-05T18:45:23;101110.0;;;7.2;71.5
60719;BME280;46567;51.660;5.824;2023-03-05T18:50:26;101100.0;;;7.2;71.5
60719;BME280;46567;51.660;5.824;2023-03-05T18:55:26;101100.0;;;7.1;72.0
60719;BME280;46567;51.660;5.824;2023-03-05T19:00:24;101100.0;;;7.1;72.0
60719;BME280;46567;51.660;5.824;2023-03-05T19:05:23;101100.0;;;7.1;72.5
60719;BME280;46567;51.660;5.824;2023-03-05T19:10:23;101090.0;;;7.1;72.5
60719;BME280;46567;51.660;5.824;2023-03-05T19:15:22;101090.0;;;7.0;72.5
60719;BME280;46567;51.660;5.824;2023-03-05T19:20:22;101090.0;;;7.0;73.0
60719;BME280;46567;51.660;5.824;2023-03-05T19:25:22;101080.0;;;6.9;73.5
60719;BME280;46567;51.660;5.824;2023-03-05T19:30:22;101070.0;;;6.8;73.5
60719;BME280;46567;51.660;5.824;2023-03-05T19:35:22;101070.0;;;6.6;74.0
60719;BME280;46567;51.660;5.824;2023-03-05T19:40:22;101050.0;;;6.6;74.5
60719;BME280;46567;51.660;5.824;2023-03-05T19:45:22;101050.0;;;6.5;75.0
60719;BME280;46567;51.660;5.824;2023-03-05T19:50:22;101050.0;;;6.5;75.0
60719;BME280;46567;51.660;5.824;2023-03-05T19:55:22;101060.0;;;6.4;75.5
60719;BME280;46567;51.660;5.824;2023-03-05T20:00:23;101060.0;;;6.2;75.5
60719;BME280;46567;51.660;5.824;2023-03-05T20:05:22;101050.0;;;6.0;76.0
60719;BME280;46567;51.660;5.824;2023-03-05T20:10:23;101050.0;;;5.9;77.0
60719;BME280;46567;51.660;5.824;2023-03-05T20:15:22;101040.0;;;5.9;77.0
60719;BME280;46567;51.660;5.824;2023-03-05T20:20:23;101040.0;;;5.8;77.5
60719;BME280;46567;51.660;5.824;2023-03-05T20:25:22;101040.0;;;5.8;77.5
60719;BME280;46567;51.660;5.824;2023-03-05T20:30:22;101030.0;;;5.8;78.0
60719;BME280;46567;51.660;5.824;2023-03-05T20:35:22;101030.0;;;5.8;78.0
60719;BME280;46567;51.660;5.824;2023-03-05T20:40:22;101020.0;;;5.8;78.5
60719;BME280;46567;51.660;5.824;2023-03-05T20:45:22;101030.0;;;5.8;78.5
60719;BME280;46567;51.660;5.824;2023-03-05T20:50:22;101010.0;;;5.8;79.0
60719;BME280;46567;51.660;5.824;2023-03-05T20:55:22;101010.0;;;5.8;79.0
60719;BME280;46567;51.660;5.824;2023-03-05T21:00:23;101000.0;;;5.8;79.5
60719;BME280;46567;51.660;5.824;2023-03-05T21:05:24;101000.0;;;5.8;79.5
60719;BME280;46567;51.660;5.824;2023-03-05T21:10:23;100980.0;;;5.8;79.5
60719;BME280;46567;51.660;5.824;2023-03-05T21:15:25;100990.0;;;5.8;79.5
60719;BME280;46567;51.660;5.824;2023-03-05T21:20:24;100980.0;;;5.8;80.0
60719;BME280;46567;51.660;5.824;2023-03-05T21:25:24;100970.0;;;5.8;79.5
60719;BME280;46567;51.660;5.824;2023-03-05T21:30:26;100970.0;;;5.8;80.0
60719;BME280;46567;51.660;5.824;2023-03-05T21:35:23;100960.0;;;5.7;80.0
60719;BME280;46567;51.660;5.824;2023-03-05T21:40:23;100950.0;;;5.7;80.0
60719;BME280;46567;51.660;5.824;2023-03-05T21:45:24;100960.0;;;5.6;80.5
60719;BME280;46567;51.660;5.824;2023-03-05T21:50:24;100960.0;;;5.6;80.5
60719;BME280;46567;51.660;5.824;2023-03-05T21:55:22;100950.0;;;5.6;80.5
60719;BME280;46567;51.660;5.824;2023-03-05T22:00:22;100940.0;;;5.6;80.5
60719;BME280;46567;51.660;5.824;2023-03-05T22:05:22;100940.0;;;5.6;81.0
60719;BME280;46567;51.660;5.824;2023-03-05T22:10:22;100930.0;;;5.6;81.0
60719;BME280;46567;51.660;5.824;2023-03-05T22:15:22;100920.0;;;5.6;81.0
60719;BME280;46567;51.660;5.824;2023-03-05T22:20:23;100910.0;;;5.6;81.0
60719;BME280;46567;51.660;5.824;2023-03-05T22:25:22;100910.0;;;5.6;81.0
60719;BME280;46567;51.660;5.824;2023-03-05T22:30:22;100900.0;;;5.6;81.5
60719;BME280;46567;51.660;5.824;2023-03-05T22:35:22;100900.0;;;5.6;81.5
60719;BME280;46567;51.660;5.824;2023-03-05T22:40:23;100890.0;;;5.5;81.5
60719;BME280;46567;51.660;5.824;2023-03-05T22:45:22;100880.0;;;5.5;81.5
60719;BME280;46567;51.660;5.824;2023-03-05T22:50:23;100880.0;;;5.5;81.5
60719;BME280;46567;51.660;5.824;2023-03-05T22:55:22;100880.0;;;5.5;81.5
60719;BME280;46567;51.660;5.824;2023-03-05T23:00:23;100870.0;;;5.4;81.5
60719;BME280;46567;51.660;5.824;2023-03-05T23:05:22;100860.0;;;5.5;82.0
60719;BME280;46567;51.660;5.824;2023-03-05T23:10:26;100850.0;;;5.5;82.0
60719;BME280;46567;51.660;5.824;2023-03-05T23:15:24;100850.0;;;5.5;82.0
60719;BME280;46567;51.660;5.824;2023-03-05T23:20:24;100850.0;;;5.5;82.5
60719;BME280;46567;51.660;5.824;2023-03-05T23:25:24;100840.0;;;5.5;82.5
60719;BME280;46567;51.660;5.824;2023-03-05T23:30:24;100840.0;;;5.5;82.5
60719;BME280;46567;51.660;5.824;2023-03-05T23:35:24;100830.0;;;5.4;82.0
60719;BME280;46567;51.660;5.824;2023-03-05T23:40:25;100830.0;;;5.3;82.5
60719;BME280;46567;51.660;5.824;2023-03-05T23:45:24;100820.0;;;5.3;82.5
60719;BME280;46567;51.660;5.824;2023-03-05T23:50:24;100830.0;;;5.3;83.0
60719;BME280;46567;51.660;5.824;2023-03-05T23:55:25;100810.0;;;5.3;83.0
